Orr, North Dakota
Current Conditions -  °F | °C
As of 9:58 AM on Tuesday 21 Oct 2014 (Local Time) from KRDR Reporting Station
Clear Clear  
Wind Chill: 38°   Ceiling: Unl
Heat Index: 44°   Visibility: 10mi
Dew Point: 43°   Wind: 14mph
Humidity: 95%   Direction: 160°SSE
Pressure: 29.99"   Gusts: 23mph
Location:  48.1078°N, 97.7089°W
Report Text: KRDR 211458Z AUTO 16012G20KT 10SM CLR 07/06 A2999 RMK AO2 SLP167 T00690061 58012
Loading
Personal Weather Stations






























Interactive Weather Map New forecast layout! Learn more

10-Day Weather Forecast

Advertisements
Track Severe Weather on mobile